Astra — PB4187 — position and weather

sailwx.info

Track history (hours):
 
Tides and Currents Weather Stations Pressure Air Temp Water Temp Dewpoint Dewpoint Depression Visibility Wind Speed Wind Dir Waves Ship Positions

Astra

Last reported at 2014-Oct-30 22:34 UTC. Time now 2014-Oct-31 18:01 UTC.
Position N 49°21' E 008°29'.

Length 110 m; draft 1.4 m.

Type: Tanker. MMSI: 244650752.

Date/timePositionNaut miles runAvg speedWind from/ knotsBaromVisibWave heightAir tempDewpointWater temp
2014-Oct-30 22:34N 49°21' E 008°29'9 9.1
2014-Oct-30 21:33N 49°13' E 008°23'1111.4
2014-Oct-30 20:34N 49°02' E 008°18'1111.4
2014-Oct-30 19:33N 48°53' E 008°08'6 5.8
2014-Oct-30 18:33N 48°48' E 008°05'7 7.1
2014-Oct-30 17:33N 48°43' E 007°57'66 2.1
2014-Oct-29 10:25N 47°38' E 007°32'3 3.3
2014-Oct-29 09:33N 47°36' E 007°35'0 0.0
2014-Oct-29 08:33N 47°36' E 007°35'0 0.0
2014-Oct-29 07:33N 47°36' E 007°35'0 0.0
2014-Oct-29 06:33N 47°36' E 007°35'0 0.0
2014-Oct-29 05:33N 47°36' E 007°35'0 0.0
2014-Oct-29 04:33N 47°36' E 007°35'0 0.0
2014-Oct-29 03:33N 47°36' E 007°35'0 0.0
2014-Oct-29 02:33N 47°36' E 007°35'0 0.0
2014-Oct-29 01:33N 47°36' E 007°35'0 0.0
2014-Oct-29 00:33N 47°36' E 007°35'0 0.0
2014-Oct-28 23:32N 47°36' E 007°35'65 4.2
2014-Oct-28 08:12N 48°40' E 007°54'1 1.9
2014-Oct-28 07:32N 48°41' E 007°55'5 4.8
2014-Oct-28 06:33N 48°45' E 007°58'6 6.3
2014-Oct-28 05:33N 48°49' E 008°06'3 3.1
2014-Oct-28 04:33N 48°52' E 008°07'4 4.3
2014-Oct-28 03:33N 48°56' E 008°10'4 4.2
2014-Oct-28 02:33N 48°58' E 008°15'4 4.4
2014-Oct-28 01:33N 49°02' E 008°18'5 4.8
2014-Oct-28 00:33N 49°06' E 008°22'4 4.3
2014-Oct-27 23:33N 49°11' E 008°23'5 4.6
2014-Oct-27 22:33N 49°15' E 008°25'4 4.3
2014-Oct-27 21:33N 49°19' E 008°29'4 4.3
2014-Oct-27 20:32N 49°23' E 008°30'109 4.0
2014-Oct-26 17:23N 50°55' E 006°58'10 4.6
2014-Oct-26 15:09N 51°04' E 006°52'3 4.3
2014-Oct-26 14:33N 51°07' E 006°53'3 3.0
2014-Oct-26 13:33N 51°09' E 006°49'4 4.1
2014-Oct-26 12:33N 51°11' E 006°44'3 3.4
2014-Oct-26 11:33N 51°14' E 006°46'4 3.9
2014-Oct-26 10:33N 51°18' E 006°44'5 4.6
2014-Oct-26 09:33N 51°22' E 006°40'14 2.6
2014-Oct-26 04:11N 51°30' E 006°57'0 0.0
2014-Oct-26 03:29N 51°30' E 006°57'0 0.0
2014-Oct-26 02:28N 51°30' E 006°57'0 0.0
2014-Oct-26 01:33N 51°30' E 006°57'0 0.0
2014-Oct-26 00:33N 51°30' E 006°57'0 0.0
2014-Oct-25 23:30N 51°30' E 006°57'0 0.0
2014-Oct-25 10:29N 51°30' E 006°57'0 0.0
2014-Oct-24 16:27N 51°30' E 006°58'14 3.6
2014-Oct-24 12:33N 51°22' E 006°40'8 8.4
2014-Oct-24 11:33N 51°15' E 006°46'6 6.1
2014-Oct-24 10:33N 51°09' E 006°48'6 6.1
2014-Oct-24 09:32N 51°04' E 006°54'  
2014-Oct-21 17:33N 49°23' E 008°30'7 6.8
2014-Oct-21 16:33N 49°16' E 008°27'9 8.5
2014-Oct-21 15:33N 49°08' E 008°22'4 4.4
2014-Oct-21 14:33N 49°04' E 008°20'0 0.0
2014-Oct-21 13:33N 49°04' E 008°20'0 0.0
2014-Oct-21 12:33N 49°04' E 008°20'0 0.0
2014-Oct-21 11:33N 49°04' E 008°20'0 0.0
2014-Oct-21 10:33N 49°04' E 008°20'0 0.0
2014-Oct-21 09:33N 49°04' E 008°20'0 0.0
2014-Oct-21 08:33N 49°04' E 008°20'0 0.0
2014-Oct-21 07:33N 49°04' E 008°20'0 0.0
2014-Oct-21 06:33N 49°04' E 008°20'0 0.0
2014-Oct-21 05:33N 49°04' E 008°20'0 0.0
2014-Oct-21 04:33N 49°04' E 008°20'0 0.0
2014-Oct-21 03:33N 49°04' E 008°20'0 0.0
2014-Oct-21 02:33N 49°04' E 008°20'0 0.0
2014-Oct-21 01:33N 49°04' E 008°20'0 0.3
2014-Oct-21 00:33N 49°04' E 008°20'0 0.0
2014-Oct-20 23:33N 49°04' E 008°20'  
Track history (hours):
 
Tides and Currents Weather Stations Pressure Air Temp Water Temp Dewpoint Dewpoint Depression Visibility Wind Speed Wind Dir Waves Ship Positions

Astra

Last reported at 2014-Oct-30 22:34 UTC. Time now 2014-Oct-31 18:01 UTC.
Position N 49°21' E 008°29'.

Length 110 m; draft 1.4 m.

Type: Tanker. MMSI: 244650752.

Date/timePositionNaut miles runAvg speedWind from/ knotsBaromVisibWave heightAir tempDewpointWater temp
2014-Oct-30 22:34N 49°21' E 008°29'9 9.1
2014-Oct-30 21:33N 49°13' E 008°23'1111.4
2014-Oct-30 20:34N 49°02' E 008°18'1111.4
2014-Oct-30 19:33N 48°53' E 008°08'6 5.8
2014-Oct-30 18:33N 48°48' E 008°05'7 7.1
2014-Oct-30 17:33N 48°43' E 007°57'66 2.1
2014-Oct-29 10:25N 47°38' E 007°32'3 3.3
2014-Oct-29 09:33N 47°36' E 007°35'0 0.0
2014-Oct-29 08:33N 47°36' E 007°35'0 0.0
2014-Oct-29 07:33N 47°36' E 007°35'0 0.0
2014-Oct-29 06:33N 47°36' E 007°35'0 0.0
2014-Oct-29 05:33N 47°36' E 007°35'0 0.0
2014-Oct-29 04:33N 47°36' E 007°35'0 0.0
2014-Oct-29 03:33N 47°36' E 007°35'0 0.0
2014-Oct-29 02:33N 47°36' E 007°35'0 0.0
2014-Oct-29 01:33N 47°36' E 007°35'0 0.0
2014-Oct-29 00:33N 47°36' E 007°35'0 0.0
2014-Oct-28 23:32N 47°36' E 007°35'65 4.2
2014-Oct-28 08:12N 48°40' E 007°54'1 1.9
2014-Oct-28 07:32N 48°41' E 007°55'5 4.8
2014-Oct-28 06:33N 48°45' E 007°58'6 6.3
2014-Oct-28 05:33N 48°49' E 008°06'3 3.1
2014-Oct-28 04:33N 48°52' E 008°07'4 4.3
2014-Oct-28 03:33N 48°56' E 008°10'4 4.2
2014-Oct-28 02:33N 48°58' E 008°15'4 4.4
2014-Oct-28 01:33N 49°02' E 008°18'5 4.8
2014-Oct-28 00:33N 49°06' E 008°22'4 4.3
2014-Oct-27 23:33N 49°11' E 008°23'5 4.6
2014-Oct-27 22:33N 49°15' E 008°25'4 4.3
2014-Oct-27 21:33N 49°19' E 008°29'4 4.3
2014-Oct-27 20:32N 49°23' E 008°30'109 4.0
2014-Oct-26 17:23N 50°55' E 006°58'10 4.6
2014-Oct-26 15:09N 51°04' E 006°52'3 4.3
2014-Oct-26 14:33N 51°07' E 006°53'3 3.0
2014-Oct-26 13:33N 51°09' E 006°49'4 4.1
2014-Oct-26 12:33N 51°11' E 006°44'3 3.4
2014-Oct-26 11:33N 51°14' E 006°46'4 3.9
2014-Oct-26 10:33N 51°18' E 006°44'5 4.6
2014-Oct-26 09:33N 51°22' E 006°40'14 2.6
2014-Oct-26 04:11N 51°30' E 006°57'0 0.0
2014-Oct-26 03:29N 51°30' E 006°57'0 0.0
2014-Oct-26 02:28N 51°30' E 006°57'0 0.0
2014-Oct-26 01:33N 51°30' E 006°57'0 0.0
2014-Oct-26 00:33N 51°30' E 006°57'0 0.0
2014-Oct-25 23:30N 51°30' E 006°57'0 0.0
2014-Oct-25 10:29N 51°30' E 006°57'0 0.0
2014-Oct-24 16:27N 51°30' E 006°58'14 3.6
2014-Oct-24 12:33N 51°22' E 006°40'8 8.4
2014-Oct-24 11:33N 51°15' E 006°46'6 6.1
2014-Oct-24 10:33N 51°09' E 006°48'6 6.1
2014-Oct-24 09:32N 51°04' E 006°54'  
2014-Oct-21 17:33N 49°23' E 008°30'7 6.8
2014-Oct-21 16:33N 49°16' E 008°27'9 8.5
2014-Oct-21 15:33N 49°08' E 008°22'4 4.4
2014-Oct-21 14:33N 49°04' E 008°20'0 0.0
2014-Oct-21 13:33N 49°04' E 008°20'0 0.0
2014-Oct-21 12:33N 49°04' E 008°20'0 0.0
2014-Oct-21 11:33N 49°04' E 008°20'0 0.0
2014-Oct-21 10:33N 49°04' E 008°20'0 0.0
2014-Oct-21 09:33N 49°04' E 008°20'0 0.0
2014-Oct-21 08:33N 49°04' E 008°20'0 0.0
2014-Oct-21 07:33N 49°04' E 008°20'0 0.0
2014-Oct-21 06:33N 49°04' E 008°20'0 0.0
2014-Oct-21 05:33N 49°04' E 008°20'0 0.0
2014-Oct-21 04:33N 49°04' E 008°20'0 0.0
2014-Oct-21 03:33N 49°04' E 008°20'0 0.0
2014-Oct-21 02:33N 49°04' E 008°20'0 0.0
2014-Oct-21 01:33N 49°04' E 008°20'0 0.3
2014-Oct-21 00:33N 49°04' E 008°20'0 0.0
2014-Oct-20 23:33N 49°04' E 008°20'  

Dump ship's entire track history